Terminal Aerodrome Forecast
Issued by NWS Wilmington, OH

Current Version | Previous Version | Text Only | Print | Product List | Glossary Off
Versions: 1 2 3 4 5 6 7 8 9 10 11 12 13 14 15 16 17 18 19 20 21 22 23

000
FTUS41 KILN 241100 RRA
TAFILN
TAF
KILN 241140Z 2412/2512 18018G32KT P6SM VCSH SCT015 OVC025
      TEMPO 2415/2417 23023G36KT 5SM -SHRA BR OVC015
     FM241700 24017G27KT P6SM OVC028
     FM250300 23013G20KT P6SM SCT025
      TEMPO 2509/2512 BKN025=

USA.gov is the U.S. government's official web portal to all federal, state and local government web resources and services.